createdAt,value
2023-12-30T00:02:22.759Z,7.86
2023-12-30T00:04:49.396Z,7.96
2023-12-30T00:07:16.046Z,7.97
2023-12-30T00:09:42.725Z,7.91
2023-12-30T00:12:10.329Z,7.87
2023-12-30T00:14:36.898Z,7.82
2023-12-30T00:17:03.977Z,7.73
2023-12-30T00:19:30.691Z,7.69
2023-12-30T00:21:57.400Z,7.73
2023-12-30T00:24:24.030Z,7.73
2023-12-30T00:26:51.352Z,7.72
2023-12-30T00:29:17.962Z,7.74
2023-12-30T00:31:44.564Z,7.73
2023-12-30T00:34:11.428Z,7.70
2023-12-30T00:36:43.127Z,7.73
2023-12-30T00:39:09.677Z,7.73
2023-12-30T00:41:36.196Z,7.71
2023-12-30T00:44:02.867Z,7.72
2023-12-30T00:46:29.515Z,7.66
2023-12-30T00:48:57.763Z,7.64
2023-12-30T00:51:25.205Z,7.64
2023-12-30T00:53:51.925Z,7.66
2023-12-30T00:56:18.551Z,7.69
2023-12-30T00:58:45.235Z,7.67
2023-12-30T01:01:12.155Z,7.63
2023-12-30T01:03:41.449Z,7.61
2023-12-30T01:06:08.341Z,7.56
2023-12-30T01:08:34.984Z,7.51
2023-12-30T01:11:01.631Z,7.43
2023-12-30T01:13:28.260Z,7.46
2023-12-30T01:15:54.951Z,7.41
2023-12-30T01:18:21.763Z,7.33
2023-12-30T01:20:48.494Z,7.27
2023-12-30T01:23:15.616Z,7.22
2023-12-30T01:25:43.546Z,7.17
2023-12-30T01:28:10.475Z,7.16
2023-12-30T01:30:41.302Z,7.14
2023-12-30T01:33:08.326Z,7.11
2023-12-30T01:35:35.707Z,7.02
2023-12-30T01:38:04.150Z,6.95
2023-12-30T01:40:31.960Z,6.85
2023-12-30T01:42:58.735Z,6.87
2023-12-30T01:45:25.362Z,6.87
2023-12-30T01:47:52.474Z,6.88
2023-12-30T01:50:19.843Z,6.92
2023-12-30T01:52:48.352Z,6.85
2023-12-30T01:55:16.461Z,6.83
2023-12-30T01:57:45.753Z,6.84
2023-12-30T02:00:21.224Z,6.80
2023-12-30T02:02:50.090Z,6.79
2023-12-30T02:05:17.489Z,6.80
2023-12-30T02:07:46.590Z,6.77
2023-12-30T02:10:13.796Z,6.72
2023-12-30T02:12:40.884Z,6.68
2023-12-30T02:15:22.953Z,6.67
2023-12-30T02:17:53.094Z,6.62
2023-12-30T02:20:19.771Z,6.59
2023-12-30T02:22:46.496Z,6.55
2023-12-30T02:25:13.178Z,6.67
2023-12-30T02:27:39.784Z,6.66
2023-12-30T02:30:06.852Z,6.65
2023-12-30T02:32:33.440Z,6.65
2023-12-30T02:35:00.050Z,6.77
2023-12-30T02:37:26.712Z,6.86
2023-12-30T02:39:53.374Z,6.90
2023-12-30T02:42:19.959Z,6.94
2023-12-30T02:44:46.522Z,6.95
2023-12-30T02:47:13.208Z,7.00
2023-12-30T02:49:43.625Z,6.99
2023-12-30T02:52:10.499Z,6.96
2023-12-30T02:54:37.135Z,6.94
2023-12-30T02:57:04.381Z,6.94
2023-12-30T02:59:31.802Z,6.97
2023-12-30T03:01:58.389Z,7.04
2023-12-30T03:08:05.737Z,7.04
2023-12-30T03:10:32.302Z,7.00
2023-12-30T03:12:59.062Z,6.93
2023-12-30T03:15:25.629Z,6.88
2023-12-30T03:17:52.339Z,6.85
2023-12-30T03:20:19.227Z,6.83
2023-12-30T03:22:45.798Z,6.89
2023-12-30T03:25:12.408Z,6.86
2023-12-30T03:27:38.961Z,6.87
2023-12-30T03:30:06.898Z,6.82
2023-12-30T03:32:33.681Z,6.79
2023-12-30T03:35:00.318Z,6.73
2023-12-30T03:37:26.974Z,6.65
2023-12-30T03:39:53.696Z,6.59
2023-12-30T03:42:20.309Z,6.50
2023-12-30T03:44:46.838Z,6.45
2023-12-30T03:47:13.680Z,6.42
2023-12-30T03:49:40.276Z,6.36
2023-12-30T03:52:07.025Z,6.28
2023-12-30T03:54:33.685Z,6.17
2023-12-30T03:57:00.214Z,6.18
2023-12-30T03:59:26.787Z,6.20
2023-12-30T04:01:53.409Z,6.11
2023-12-30T04:04:20.158Z,6.06
2023-12-30T04:06:46.755Z,5.98
2023-12-30T04:09:13.499Z,5.97
2023-12-30T04:11:40.098Z,5.97
2023-12-30T04:14:06.739Z,5.94
2023-12-30T04:16:33.371Z,5.86
2023-12-30T04:19:00.101Z,5.87
2023-12-30T04:21:26.804Z,5.90
2023-12-30T04:23:53.473Z,5.90
2023-12-30T04:26:20.129Z,5.85
2023-12-30T04:28:47.817Z,5.83
2023-12-30T04:31:14.504Z,5.79
2023-12-30T04:33:41.184Z,5.77
2023-12-30T04:36:08.244Z,5.74
2023-12-30T04:38:35.137Z,5.82
2023-12-30T04:41:01.719Z,5.88
2023-12-30T04:43:28.328Z,5.85
2023-12-30T04:45:54.938Z,5.92
2023-12-30T04:48:21.688Z,6.03
2023-12-30T04:50:48.358Z,6.06
2023-12-30T04:53:14.937Z,6.06
2023-12-30T04:55:42.527Z,6.02
2023-12-30T04:58:09.163Z,6.01
2023-12-30T05:00:36.081Z,6.00
2023-12-30T05:03:03.246Z,6.02
2023-12-30T05:05:30.020Z,5.97
2023-12-30T05:07:56.616Z,5.95
2023-12-30T05:10:23.286Z,5.98
2023-12-30T05:12:50.959Z,5.94
2023-12-30T05:15:17.856Z,5.86
2023-12-30T05:17:45.355Z,5.86
2023-12-30T05:20:13.629Z,5.75
2023-12-30T05:22:41.587Z,5.71
2023-12-30T05:25:08.287Z,5.67
2023-12-30T05:27:34.918Z,5.65
2023-12-30T05:30:01.485Z,5.63
2023-12-30T05:32:28.106Z,5.63
2023-12-30T05:34:54.782Z,5.65
2023-12-30T05:37:21.383Z,5.65
2023-12-30T05:39:48.037Z,5.64
2023-12-30T05:42:14.568Z,5.67
2023-12-30T05:44:41.161Z,5.72
2023-12-30T05:47:07.717Z,5.71
2023-12-30T05:49:36.728Z,5.72
2023-12-30T05:52:03.585Z,5.71
2023-12-30T05:54:30.302Z,5.70
2023-12-30T05:56:56.928Z,5.73
2023-12-30T05:59:23.547Z,5.76
2023-12-30T06:01:50.160Z,5.80
2023-12-30T06:04:17.160Z,5.82
2023-12-30T06:06:44.432Z,5.84
2023-12-30T06:09:11.125Z,5.86
2023-12-30T06:11:40.113Z,5.87
2023-12-30T06:14:06.706Z,5.91
2023-12-30T06:16:33.408Z,5.90
2023-12-30T06:19:00.131Z,5.93
2023-12-30T06:21:26.950Z,5.93
2023-12-30T06:23:53.550Z,5.89
2023-12-30T06:26:20.115Z,5.89
2023-12-30T06:28:46.802Z,5.90
2023-12-30T06:31:14.056Z,5.90
2023-12-30T06:33:41.431Z,5.92
2023-12-30T06:36:08.811Z,5.89
2023-12-30T06:38:36.551Z,5.78
2023-12-30T06:41:06.967Z,5.74
2023-12-30T06:43:33.546Z,5.75
2023-12-30T06:46:04.012Z,5.71
2023-12-30T06:48:30.656Z,5.71
2023-12-30T06:50:58.134Z,5.67
2023-12-30T06:53:24.703Z,5.62
2023-12-30T06:55:51.268Z,5.58
2023-12-30T06:58:17.986Z,5.58
2023-12-30T07:00:44.587Z,5.60
2023-12-30T07:03:12.342Z,5.66
2023-12-30T07:05:39.076Z,5.71
2023-12-30T07:08:06.106Z,5.71
2023-12-30T07:10:32.794Z,5.69
2023-12-30T07:12:59.662Z,5.68
2023-12-30T07:15:26.632Z,5.77
2023-12-30T07:17:53.302Z,5.82
2023-12-30T07:20:20.321Z,5.80
2023-12-30T07:22:46.841Z,5.83
2023-12-30T07:25:14.100Z,5.82
2023-12-30T07:27:40.699Z,5.86
2023-12-30T07:30:07.807Z,5.91
2023-12-30T07:32:34.589Z,5.87
2023-12-30T07:35:01.462Z,5.87
2023-12-30T07:37:28.957Z,5.85
2023-12-30T07:39:55.926Z,5.82
2023-12-30T07:42:23.695Z,5.89
2023-12-30T07:44:51.620Z,5.92
2023-12-30T07:47:18.267Z,5.98
2023-12-30T07:49:44.936Z,5.93
2023-12-30T07:52:11.858Z,5.94
2023-12-30T07:54:38.432Z,5.97
2023-12-30T07:57:05.255Z,5.98
2023-12-30T07:59:31.842Z,6.03
2023-12-30T08:01:58.632Z,6.10
2023-12-30T08:04:25.830Z,6.19
2023-12-30T08:06:52.585Z,6.28
2023-12-30T08:09:19.110Z,6.37
2023-12-30T08:11:54.819Z,6.48
2023-12-30T08:14:28.454Z,6.55
2023-12-30T08:16:55.031Z,6.64
2023-12-30T08:19:21.655Z,6.70
2023-12-30T08:21:48.266Z,6.78
2023-12-30T08:24:17.766Z,6.82
2023-12-30T08:26:44.614Z,6.88
2023-12-30T08:29:11.359Z,6.94
2023-12-30T08:31:38.184Z,7.01
2023-12-30T08:34:05.045Z,7.07
2023-12-30T08:36:31.715Z,7.11
2023-12-30T08:38:58.304Z,7.14
2023-12-30T08:41:29.001Z,7.20
2023-12-30T08:43:57.770Z,7.27
2023-12-30T08:46:24.589Z,7.30
2023-12-30T08:48:51.339Z,7.37
2023-12-30T08:51:18.053Z,7.41
2023-12-30T08:53:44.638Z,7.43
2023-12-30T08:56:11.259Z,7.47
2023-12-30T08:58:38.104Z,7.51
2023-12-30T09:01:04.930Z,7.53
2023-12-30T09:03:31.600Z,7.58
2023-12-30T09:05:58.267Z,7.60
2023-12-30T09:08:24.842Z,7.60
2023-12-30T09:10:51.395Z,7.62
2023-12-30T09:13:18.221Z,7.65
2023-12-30T09:15:44.879Z,7.61
2023-12-30T09:18:14.834Z,7.64
2023-12-30T09:20:42.066Z,7.63
2023-12-30T09:23:08.628Z,7.65
2023-12-30T09:25:35.550Z,7.70
2023-12-30T09:28:02.229Z,7.76
2023-12-30T09:30:29.305Z,7.82
2023-12-30T09:32:55.963Z,7.86
2023-12-30T09:35:22.731Z,7.93
2023-12-30T09:37:49.696Z,7.96
2023-12-30T09:40:16.343Z,8.01
2023-12-30T09:42:48.318Z,8.08
2023-12-30T09:46:06.121Z,8.10
2023-12-30T09:48:52.755Z,8.17
2023-12-30T09:51:19.530Z,8.24
2023-12-30T09:53:46.174Z,8.32
2023-12-30T09:56:13.778Z,8.49
2023-12-30T09:58:41.400Z,8.58
2023-12-30T10:01:08.353Z,8.60
2023-12-30T10:03:35.607Z,8.64
2023-12-30T10:06:05.481Z,8.72
2023-12-30T10:08:32.107Z,8.80
2023-12-30T10:10:58.820Z,8.80
2023-12-30T10:13:28.349Z,8.92
2023-12-30T10:15:58.812Z,8.95
2023-12-30T10:18:26.004Z,8.90
2023-12-30T10:20:53.075Z,8.85
2023-12-30T10:23:19.633Z,8.85
2023-12-30T10:25:47.055Z,8.88
2023-12-30T10:28:14.108Z,8.82
2023-12-30T10:30:40.964Z,8.79
2023-12-30T10:33:15.443Z,8.79
2023-12-30T10:35:43.598Z,8.86
2023-12-30T10:38:11.384Z,8.97
2023-12-30T10:40:39.575Z,9.02
2023-12-30T10:43:07.176Z,9.20
2023-12-30T10:45:34.269Z,9.39
2023-12-30T10:48:02.038Z,9.53
2023-12-30T10:50:29.149Z,9.71
2023-12-30T10:53:07.007Z,9.56
2023-12-30T10:55:35.116Z,9.31
2023-12-30T10:58:18.398Z,9.25
2023-12-30T11:00:52.900Z,9.30
2023-12-30T11:03:20.975Z,9.39
2023-12-30T11:06:08.386Z,9.68
2023-12-30T11:08:36.072Z,9.82
2023-12-30T11:11:05.154Z,9.98
2023-12-30T11:13:36.183Z,9.82
2023-12-30T11:16:16.637Z,9.64
2023-12-30T11:18:52.075Z,9.72
2023-12-30T11:21:35.003Z,9.90
2023-12-30T11:24:03.028Z,9.78
2023-12-30T11:26:30.534Z,9.80
2023-12-30T11:29:02.086Z,9.88
2023-12-30T11:31:33.364Z,9.98
2023-12-30T11:34:01.017Z,9.88
2023-12-30T11:36:29.274Z,9.80
2023-12-30T11:38:58.684Z,9.80
2023-12-30T11:41:26.741Z,9.72
2023-12-30T11:43:55.932Z,9.72
2023-12-30T11:46:22.858Z,9.65
2023-12-30T11:48:49.751Z,9.70
2023-12-30T11:51:27.508Z,9.68
2023-12-30T11:53:54.610Z,9.90
2023-12-30T11:56:25.400Z,10.25
2023-12-30T11:58:52.920Z,10.08
2023-12-30T12:01:20.257Z,10.01
2023-12-30T12:03:46.898Z,10.19
2023-12-30T12:06:14.973Z,10.21
2023-12-30T12:08:42.686Z,10.37
2023-12-30T12:11:10.249Z,10.54
2023-12-30T12:13:36.909Z,10.67
2023-12-30T12:16:05.530Z,10.77
2023-12-30T12:18:33.016Z,10.81
2023-12-30T12:21:04.339Z,10.91
2023-12-30T12:23:32.262Z,10.77
2023-12-30T12:25:59.994Z,10.80
2023-12-30T12:28:26.606Z,10.70
2023-12-30T12:30:53.368Z,10.85
2023-12-30T12:33:20.639Z,10.85
2023-12-30T12:35:47.460Z,10.70
2023-12-30T12:38:14.346Z,10.72
2023-12-30T12:40:40.955Z,10.68
2023-12-30T12:43:07.787Z,10.54
2023-12-30T12:45:34.455Z,10.67
2023-12-30T12:48:01.211Z,10.55
2023-12-30T12:50:27.995Z,10.57
2023-12-30T12:52:54.579Z,10.53
2023-12-30T12:55:21.234Z,10.50
2023-12-30T12:57:47.809Z,10.47
2023-12-30T13:00:14.910Z,10.58
2023-12-30T13:02:41.538Z,10.56
2023-12-30T13:08:53.083Z,10.38
2023-12-30T13:11:27.932Z,10.42
2023-12-30T13:13:55.904Z,10.33
2023-12-30T13:16:22.768Z,10.27
2023-12-30T13:18:49.639Z,10.22
2023-12-30T13:21:16.478Z,10.19
2023-12-30T13:23:43.085Z,10.13
2023-12-30T13:26:09.746Z,10.11
2023-12-30T13:28:36.675Z,10.10
2023-12-30T13:31:03.464Z,10.09
2023-12-30T13:33:30.231Z,10.11
2023-12-30T13:35:57.485Z,10.07
2023-12-30T13:38:25.176Z,10.07
2023-12-30T13:40:54.596Z,10.11
2023-12-30T13:43:21.943Z,10.08
2023-12-30T13:45:49.701Z,10.08
2023-12-30T13:48:22.485Z,10.06
2023-12-30T13:50:56.261Z,10.07
2023-12-30T13:53:25.572Z,10.00
2023-12-30T13:55:54.425Z,9.95
2023-12-30T13:58:21.308Z,9.91
2023-12-30T14:00:48.693Z,9.93
2023-12-30T14:03:16.703Z,9.98
2023-12-30T14:05:47.113Z,10.03
2023-12-30T14:08:32.700Z,10.07
2023-12-30T14:11:06.651Z,10.07
2023-12-30T14:13:33.376Z,10.13
2023-12-30T14:16:00.171Z,10.15
2023-12-30T14:18:27.069Z,10.17
2023-12-30T14:20:53.734Z,10.19
2023-12-30T14:23:20.264Z,10.19
2023-12-30T14:25:47.013Z,10.20
2023-12-30T14:28:13.732Z,10.17
2023-12-30T14:30:40.611Z,10.08
2023-12-30T14:33:07.651Z,9.96
2023-12-30T14:35:34.584Z,9.89
2023-12-30T14:38:02.727Z,9.86
2023-12-30T14:40:29.868Z,9.82
2023-12-30T14:42:56.718Z,9.81
2023-12-30T14:45:23.324Z,9.82
2023-12-30T14:47:50.414Z,9.84
2023-12-30T14:50:17.071Z,9.87
2023-12-30T14:52:44.407Z,9.91
2023-12-30T14:55:12.381Z,9.92
2023-12-30T14:57:42.727Z,9.94
2023-12-30T15:00:16.408Z,9.96
2023-12-30T15:02:45.087Z,9.95
2023-12-30T15:05:14.846Z,9.95
2023-12-30T15:07:43.500Z,9.96
2023-12-30T15:10:12.057Z,9.97
2023-12-30T15:12:39.520Z,9.93
2023-12-30T15:15:08.112Z,9.94
2023-12-30T15:17:34.905Z,9.98
2023-12-30T15:20:01.939Z,9.96
2023-12-30T15:22:30.739Z,9.96
2023-12-30T15:24:58.179Z,9.91
2023-12-30T15:27:25.005Z,9.89
2023-12-30T15:29:51.569Z,9.93
2023-12-30T15:32:18.289Z,9.95
2023-12-30T15:34:45.361Z,9.94
2023-12-30T15:37:15.004Z,9.90
2023-12-30T15:39:41.777Z,9.84
2023-12-30T15:42:08.557Z,9.76
2023-12-30T15:44:38.332Z,9.72
2023-12-30T15:47:08.311Z,9.61
2023-12-30T15:49:35.384Z,9.55
2023-12-30T15:52:02.373Z,9.52
2023-12-30T15:54:28.984Z,9.48
2023-12-30T15:56:55.605Z,9.45
2023-12-30T15:59:22.200Z,9.46
2023-12-30T16:01:49.044Z,9.49
2023-12-30T16:04:15.693Z,9.54
2023-12-30T16:06:42.549Z,9.58
2023-12-30T16:09:09.129Z,9.54
2023-12-30T16:11:36.767Z,9.49
2023-12-30T16:14:03.406Z,9.47
2023-12-30T16:16:30.081Z,9.38
2023-12-30T16:18:56.680Z,9.39
2023-12-30T16:21:23.376Z,9.46
2023-12-30T16:23:49.961Z,9.51
2023-12-30T16:26:17.120Z,9.58
2023-12-30T16:28:44.777Z,9.67
2023-12-30T16:31:11.670Z,9.73
2023-12-30T16:33:41.693Z,9.80
2023-12-30T16:36:09.797Z,9.82
2023-12-30T16:38:36.969Z,9.79
2023-12-30T16:41:03.918Z,9.84
2023-12-30T16:43:33.328Z,9.85
2023-12-30T16:46:00.421Z,9.84
2023-12-30T16:48:27.293Z,9.87
2023-12-30T16:50:53.988Z,9.93
2023-12-30T16:53:20.757Z,9.93
2023-12-30T16:55:48.437Z,9.90
2023-12-30T16:58:15.279Z,9.94
2023-12-30T17:00:41.884Z,9.94
2023-12-30T17:03:08.613Z,9.99
2023-12-30T17:05:35.175Z,9.93
2023-12-30T17:08:01.737Z,9.94
2023-12-30T17:10:28.316Z,9.96
2023-12-30T17:12:54.868Z,9.93
2023-12-30T17:15:21.432Z,9.94
2023-12-30T17:17:48.140Z,9.99
2023-12-30T17:20:16.929Z,9.99
2023-12-30T17:22:43.815Z,9.98
2023-12-30T17:25:10.543Z,9.95
2023-12-30T17:27:37.918Z,9.94
2023-12-30T17:30:05.107Z,9.97
2023-12-30T17:32:31.736Z,10.07
2023-12-30T17:34:58.269Z,10.10
2023-12-30T17:37:25.411Z,10.11
2023-12-30T17:39:52.292Z,10.08
2023-12-30T17:42:18.875Z,10.08
2023-12-30T17:44:45.763Z,10.05
2023-12-30T17:47:12.377Z,10.04
2023-12-30T17:49:38.896Z,10.07
2023-12-30T17:52:05.780Z,10.10
2023-12-30T17:54:32.886Z,10.09
2023-12-30T17:56:59.564Z,10.09
2023-12-30T17:59:26.202Z,10.09
2023-12-30T18:01:52.826Z,10.08
2023-12-30T18:04:19.433Z,9.98
2023-12-30T18:06:46.002Z,9.91
2023-12-30T18:09:14.128Z,9.83
2023-12-30T18:11:40.737Z,9.72
2023-12-30T18:14:12.140Z,9.63
2023-12-30T18:16:41.657Z,9.61
2023-12-30T18:19:08.480Z,9.55
2023-12-30T18:21:35.195Z,9.51
2023-12-30T18:24:01.726Z,9.55
2023-12-30T18:26:28.415Z,9.57
2023-12-30T18:28:55.002Z,9.64
2023-12-30T18:31:21.604Z,9.70
2023-12-30T18:33:48.356Z,9.74
2023-12-30T18:36:15.048Z,9.76
2023-12-30T18:38:41.565Z,9.78
2023-12-30T18:41:08.294Z,9.77
2023-12-30T18:43:35.986Z,9.75
2023-12-30T18:46:02.766Z,9.72
2023-12-30T18:48:29.969Z,9.69
2023-12-30T18:50:56.643Z,9.68
2023-12-30T18:53:23.281Z,9.70
2023-12-30T18:55:49.907Z,9.75
2023-12-30T18:58:16.688Z,9.73
2023-12-30T19:00:43.365Z,9.76
2023-12-30T19:03:11.441Z,9.76
2023-12-30T19:05:38.299Z,9.73
2023-12-30T19:08:05.253Z,9.79
2023-12-30T19:10:31.892Z,9.82
2023-12-30T19:12:58.675Z,9.83
2023-12-30T19:15:25.518Z,9.83
2023-12-30T19:17:52.281Z,9.82
2023-12-30T19:20:19.332Z,9.83
2023-12-30T19:22:45.904Z,9.90
2023-12-30T19:25:12.648Z,9.90
2023-12-30T19:27:39.712Z,9.90
2023-12-30T19:30:06.949Z,9.95
2023-12-30T19:32:33.500Z,9.97
2023-12-30T19:35:01.034Z,9.98
2023-12-30T19:37:28.092Z,9.95
2023-12-30T19:39:54.814Z,10.03
2023-12-30T19:42:21.646Z,10.04
2023-12-30T19:44:48.262Z,10.05
2023-12-30T19:47:14.818Z,10.11
2023-12-30T19:49:41.422Z,10.12
2023-12-30T19:52:09.581Z,10.15
2023-12-30T19:54:38.683Z,10.17
2023-12-30T19:57:05.521Z,10.15
2023-12-30T19:59:32.400Z,10.17
2023-12-30T20:01:58.996Z,10.16
2023-12-30T20:04:25.927Z,10.08
2023-12-30T20:06:53.572Z,10.00
2023-12-30T20:09:21.027Z,10.01
2023-12-30T20:11:49.302Z,10.06
2023-12-30T20:14:16.410Z,10.08
2023-12-30T20:16:43.398Z,10.08
2023-12-30T20:19:10.448Z,10.01
2023-12-30T20:21:38.590Z,9.89
2023-12-30T20:24:05.638Z,9.84
2023-12-30T20:26:32.215Z,9.82
2023-12-30T20:28:58.782Z,9.82
2023-12-30T20:31:25.481Z,9.77
2023-12-30T20:33:52.110Z,9.73
2023-12-30T20:36:22.662Z,9.65
2023-12-30T20:38:49.447Z,9.64
2023-12-30T20:41:17.152Z,9.60
2023-12-30T20:43:43.784Z,9.51
2023-12-30T20:46:10.941Z,9.50
2023-12-30T20:48:38.087Z,9.50
2023-12-30T20:51:05.098Z,9.47
2023-12-30T20:53:32.688Z,9.46
2023-12-30T20:55:59.287Z,9.44
2023-12-30T20:58:26.262Z,9.45
2023-12-30T21:00:53.237Z,9.42
2023-12-30T21:03:19.950Z,9.37
2023-12-30T21:05:46.655Z,9.41
2023-12-30T21:08:13.901Z,9.35
2023-12-30T21:10:40.617Z,9.32
2023-12-30T21:13:07.367Z,9.34
2023-12-30T21:15:34.034Z,9.31
2023-12-30T21:18:00.753Z,9.30
2023-12-30T21:20:27.372Z,9.28
2023-12-30T21:22:56.162Z,9.35
2023-12-30T21:25:26.995Z,9.45
2023-12-30T21:27:54.317Z,9.53
2023-12-30T21:30:22.935Z,9.56
2023-12-30T21:32:50.770Z,9.57
2023-12-30T21:35:19.481Z,9.59
2023-12-30T21:37:48.282Z,9.60
2023-12-30T21:40:16.714Z,9.66
2023-12-30T21:42:43.287Z,9.68
2023-12-30T21:45:11.081Z,9.68
2023-12-30T21:47:37.830Z,9.67
2023-12-30T21:50:05.142Z,9.70
2023-12-30T21:52:34.214Z,9.71
2023-12-30T21:55:02.292Z,9.79
2023-12-30T21:57:28.874Z,9.81
2023-12-30T21:59:55.380Z,9.81
2023-12-30T22:02:21.963Z,9.85
2023-12-30T22:04:50.154Z,9.92
2023-12-30T22:07:16.908Z,9.97
2023-12-30T22:09:43.539Z,10.01
2023-12-30T22:12:10.053Z,10.07
2023-12-30T22:14:37.383Z,10.08
2023-12-30T22:17:04.154Z,10.07
2023-12-30T22:19:30.878Z,10.08
2023-12-30T22:21:57.469Z,10.10
2023-12-30T22:24:24.079Z,10.13
2023-12-30T22:26:50.710Z,10.14
2023-12-30T22:29:17.272Z,10.11
2023-12-30T22:31:44.088Z,10.14
2023-12-30T22:34:10.796Z,10.09
2023-12-30T22:36:37.921Z,10.08
2023-12-30T22:39:04.535Z,10.11
2023-12-30T22:41:31.235Z,10.17
2023-12-30T22:43:57.873Z,10.15
2023-12-30T22:46:24.517Z,10.22
2023-12-30T22:48:51.190Z,10.25
2023-12-30T22:51:17.833Z,10.24
2023-12-30T22:53:44.920Z,10.23
2023-12-30T22:56:11.544Z,10.21
2023-12-30T22:58:38.766Z,10.23
2023-12-30T23:01:06.251Z,10.21
2023-12-30T23:03:33.229Z,10.19
2023-12-30T23:06:00.010Z,10.18
2023-12-30T23:08:26.645Z,10.09
2023-12-30T23:10:53.323Z,10.08
2023-12-30T23:13:20.368Z,10.08
2023-12-30T23:15:48.182Z,10.08
2023-12-30T23:18:15.245Z,10.06
2023-12-30T23:20:41.879Z,10.03
2023-12-30T23:23:08.473Z,10.07
2023-12-30T23:25:35.081Z,10.07
2023-12-30T23:28:01.683Z,10.07
2023-12-30T23:30:28.325Z,10.10
2023-12-30T23:32:55.012Z,10.13
2023-12-30T23:35:21.682Z,10.14
2023-12-30T23:37:48.298Z,10.13
2023-12-30T23:40:15.196Z,10.12
2023-12-30T23:42:41.831Z,10.12
2023-12-30T23:45:08.884Z,10.09
2023-12-30T23:47:35.636Z,10.06
2023-12-30T23:50:02.213Z,10.07
2023-12-30T23:52:28.931Z,10.04
2023-12-30T23:54:55.620Z,10.05
2023-12-30T23:57:22.142Z,10.04
2023-12-30T23:59:48.780Z,10.02
